Forside
METAR-TAF:

METAR-TAF

Lufthavne :

Eppley Airfield

Omaha, Nebraska, USA

Breddekreds: 41-18-37N, længdekreds: 095-53-57W, højde: 299 m

Aktuelle vejr

Denne rapport blev lavet for 55 minutter siden, kl. 22:52 UTC
Vind 13 kt fra sydsydøst
Temperatur 6°C
Fugtighed 39%
Tryk 1025 hPa
Sigt: 16.1 km
Nogle få skyer i en højde af 25000 ft

METAR: KOMA 142252Z 16013KT 10SM FEW250 06/M07 A3028 RMK AO2 SLP264 T00561067

Tid: 17:47 (23:47 UTC)

Vejrudsigter

Denne rapport blev lavet for 6 minutter siden, kl. 23:41 UTC
Foreløbig gælder fra 15 på 00 UTC til 15 på 24 UTC
Vind 11 kt fra sydsydøst
Sigt: 10 km
skyfri
Fra 15 på 1700 UTC
Vind 10 kt fra sydvest
Sigt: 10 km
Spredte skyer i en højde af 25000 ft

TAF: KOMA 142341Z 1500/1524 16011KT P6SM SKC FM151700 22010KT P6SM SCT250

Vejrobservationer og prognoser fra mere end 4000 lufthavne (METAR og TAF).

De gule og røde prikker repræsenterer de meteorologiske stationer.

Flyt musen over at se navnet på stationen.

Så klik over at se vejr observationer og prognoser.

At skifte det kort: Klik på de grønne knapper med et sort kors for at zoome ind; på den grønne knap med en bindestreg for at zoome ud; eller på de grønne pile for tilstødende kort.


METAR-TAF: